Capron, Virginia
Current Conditions -  °F | °C
As of 8:15 PM on Thursday 18 Dec 2014 (Local Time) from KEMV Reporting Station
Overcast Overcast  
Wind Chill: 36°   Ceiling: 9500
Heat Index: 36°   Visibility: 10mi
Dew Point: 32°   Wind: 0mph
Humidity: 87%   Direction: NA
Pressure: 30.12"   Gusts: NA
Location:  36.71°N, 77.2°W
Report Text: KEMV 190115Z AUTO 00000KT 10SM OVC095 02/00 A3012 RMK AO2
Loading
Personal Weather Stations






























Interactive Weather Map New forecast layout! Learn more

10-Day Weather Forecast

Advertisements
Track Severe Weather on mobile